Time;durP1;ratioP1;P1;durP2;ratioP2;P2;SDS_P1;SDS_P2;PMS_P1;PMS_P2;Temp;Humidity;BMP_temperature;BMP_pressure;BME280_temperature;BME280_humidity;BME280_pressure;Samples;Min_cycle;Max_cycle;Signal;HPM_P1;HPM_P2
2021/03/05 00:00:45;;;;;;;18.70;10.70;;;3.50;93.10;;;;;;5053185;28;20229;-68
2021/03/05 00:03:12;;;;;;;18.58;11.13;;;3.50;93.10;;;;;;5058526;28;20248;-69
2021/03/05 00:05:40;;;;;;;16.30;10.25;;;3.60;93.20;;;;;;5052319;28;20209;-67
2021/03/05 00:08:09;;;;;;;20.23;10.32;;;3.80;93.20;;;;;;5054050;28;20211;-68
2021/03/05 00:10:39;;;;;;;16.98;10.27;;;3.60;93.10;;;;;;5057467;28;20537;-68
2021/03/05 00:13:06;;;;;;;20.98;10.70;;;3.60;93.20;;;;;;5057918;28;20241;-69
2021/03/05 00:15:35;;;;;;;16.63;10.02;;;3.50;93.30;;;;;;5060431;28;20206;-68
2021/03/05 00:18:03;;;;;;;15.45;10.07;;;3.50;93.30;;;;;;5054595;28;20276;-69
2021/03/05 00:20:31;;;;;;;15.25;9.38;;;3.50;93.40;;;;;;5054489;28;20428;-67
2021/03/05 00:22:58;;;;;;;18.17;11.75;;;3.50;93.30;;;;;;5057703;28;20222;-67
2021/03/05 00:25:26;;;;;;;16.88;9.07;;;3.50;93.30;;;;;;5054028;28;20217;-67
2021/03/05 00:27:55;;;;;;;20.05;10.95;;;3.40;93.50;;;;;;5055693;28;20220;-68
2021/03/05 00:30:22;;;;;;;19.27;10.45;;;3.40;93.80;;;;;;5054889;28;20217;-69
2021/03/05 00:32:48;;;;;;;18.58;10.32;;;3.40;94.00;;;;;;5058698;28;20254;-69
2021/03/05 00:35:17;;;;;;;20.73;11.07;;;3.40;94.10;;;;;;5057563;28;20216;-68
2021/03/05 00:37:50;;;;;;;22.05;12.10;;;3.40;94.20;;;;;;5060368;28;20229;-68
2021/03/05 00:40:19;;;;;;;21.50;12.00;;;3.40;94.50;;;;;;5057816;28;20305;-69
2021/03/05 00:42:46;;;;;;;20.38;12.27;;;3.40;94.50;;;;;;5059929;28;20209;-68
2021/03/05 00:45:14;;;;;;;27.65;12.13;;;3.40;94.50;;;;;;5057257;28;20386;-67
2021/03/05 00:47:42;;;;;;;23.08;13.00;;;3.40;94.60;;;;;;5056731;28;20711;-67
2021/03/05 00:50:10;;;;;;;22.58;12.95;;;3.50;94.80;;;;;;5057536;28;20216;-68
2021/03/05 00:52:37;;;;;;;21.23;12.07;;;3.40;94.80;;;;;;5058610;28;20277;-68
2021/03/05 00:55:06;;;;;;;25.35;13.10;;;3.40;94.80;;;;;;5057234;28;20214;-68
2021/03/05 00:57:33;;;;;;;21.10;11.10;;;3.30;94.90;;;;;;5059073;28;20213;-70
2021/03/05 01:00:00;;;;;;;22.00;12.60;;;3.30;95.10;;;;;;5058096;28;20544;-69
2021/03/05 01:02:27;;;;;;;18.40;13.63;;;3.30;95.10;;;;;;5058329;28;20231;-69
2021/03/05 01:04:54;;;;;;;22.88;14.13;;;3.20;95.20;;;;;;5059032;28;20229;-68
2021/03/05 01:07:21;;;;;;;21.30;12.23;;;3.30;95.30;;;;;;5056652;28;20215;-67
2021/03/05 01:09:49;;;;;;;18.55;12.60;;;3.30;95.50;;;;;;5057863;28;20222;-67
2021/03/05 01:12:15;;;;;;;20.30;13.60;;;3.30;95.60;;;;;;5072440;28;20225;-68
2021/03/05 01:14:42;;;;;;;22.02;13.48;;;3.40;95.70;;;;;;5057652;28;20526;-68
2021/03/05 01:17:09;;;;;;;21.40;13.02;;;3.30;95.90;;;;;;5057806;28;20246;-68
2021/03/05 01:19:36;;;;;;;20.77;13.60;;;3.30;96.00;;;;;;5058331;28;20212;-68
2021/03/05 01:22:02;;;;;;;23.83;13.50;;;3.50;95.90;;;;;;5060687;28;20237;-68
2021/03/05 01:24:29;;;;;;;32.45;15.43;;;3.40;96.20;;;;;;5058120;28;20218;-68
2021/03/05 01:26:55;;;;;;;22.33;14.70;;;3.30;96.40;;;;;;5054854;28;20459;-69
2021/03/05 01:29:22;;;;;;;26.83;16.45;;;3.30;96.50;;;;;;5058480;28;20406;-68
2021/03/05 01:31:48;;;;;;;32.10;17.35;;;3.20;97.00;;;;;;5058035;28;20205;-66
2021/03/05 01:34:15;;;;;;;25.23;14.32;;;3.20;97.00;;;;;;5059414;28;20221;-69
2021/03/05 01:36:42;;;;;;;29.42;15.68;;;3.10;97.00;;;;;;5056389;28;20210;-68
2021/03/05 01:39:08;;;;;;;28.60;15.48;;;3.10;97.40;;;;;;5056904;28;20205;-67
2021/03/05 01:41:36;;;;;;;34.30;17.85;;;3.10;97.80;;;;;;5055945;28;20392;-67
2021/03/05 01:44:10;;;;;;;24.98;15.27;;;3.00;98.00;;;;;;5057335;28;20212;-67
2021/03/05 01:46:37;;;;;;;29.95;16.00;;;3.00;98.00;;;;;;5056977;28;20209;-66
2021/03/05 01:49:05;;;;;;;33.25;17.52;;;3.00;98.20;;;;;;5054568;28;20419;-67
2021/03/05 01:51:34;;;;;;;27.70;16.15;;;3.00;98.50;;;;;;5062024;28;20217;-67
2021/03/05 01:54:03;;;;;;;29.42;16.63;;;2.90;98.40;;;;;;5059952;28;20809;-68
2021/03/05 01:56:29;;;;;;;28.83;16.73;;;2.90;98.70;;;;;;5055494;28;20217;-67
2021/03/05 01:58:56;;;;;;;28.17;17.67;;;2.90;99.00;;;;;;5055056;28;20208;-68
2021/03/05 02:01:23;;;;;;;28.40;17.67;;;2.80;99.40;;;;;;5056831;28;20477;-67
2021/03/05 02:03:51;;;;;;;32.58;19.10;;;2.90;99.40;;;;;;5057509;28;20234;-67
2021/03/05 02:06:17;;;;;;;35.65;21.00;;;2.90;99.70;;;;;;5054511;28;20217;-69
2021/03/05 02:08:44;;;;;;;35.90;20.45;;;2.80;99.90;;;;;;5055797;28;20216;-68
2021/03/05 02:11:10;;;;;;;38.65;19.25;;;2.70;99.90;;;;;;5056757;28;20209;-69
2021/03/05 02:13:37;;;;;;;33.05;19.55;;;2.70;99.90;;;;;;5057672;28;20245;-67
2021/03/05 02:16:13;;;;;;;34.00;18.77;;;2.70;99.90;;;;;;5058395;28;20225;-67
2021/03/05 02:18:50;;;;;;;36.63;18.65;;;2.70;99.90;;;;;;5053198;28;20252;-66
2021/03/05 02:21:37;;;;;;;37.58;20.75;;;2.60;99.90;;;;;;5052191;28;20793;-68
2021/03/05 02:24:31;;;;;;;33.90;18.77;;;2.60;99.90;;;;;;5055440;28;20204;-67
2021/03/05 02:27:36;;;;;;;33.67;19.05;;;2.70;99.90;;;;;;5057991;28;20420;-67
2021/03/05 02:30:21;;;;;;;35.53;19.27;;;2.70;99.90;;;;;;5053927;28;20252;-67
2021/03/05 02:32:53;;;;;;;30.83;18.50;;;2.80;99.90;;;;;;5049957;28;20217;-67
2021/03/05 02:35:23;;;;;;;43.65;21.90;;;2.70;99.90;;;;;;5055251;28;20698;-67
2021/03/05 02:37:53;;;;;;;41.50;21.20;;;2.70;99.90;;;;;;5051812;28;20215;-67
2021/03/05 02:40:28;;;;;;;34.90;19.25;;;2.70;99.90;;;;;;5052637;28;20245;-67
2021/03/05 02:43:03;;;;;;;45.97;23.15;;;2.60;99.90;;;;;;5059796;28;20210;-67
2021/03/05 02:45:34;;;;;;;41.13;21.75;;;2.70;99.90;;;;;;5055171;28;20214;-68
2021/03/05 02:48:07;;;;;;;41.47;24.33;;;2.60;99.90;;;;;;5066584;28;20227;-67
2021/03/05 02:50:39;;;;;;;32.42;19.52;;;2.60;99.90;;;;;;5055444;28;20217;-67
2021/03/05 02:53:09;;;;;;;37.50;20.27;;;2.50;99.90;;;;;;5057128;28;20219;-68
2021/03/05 02:55:37;;;;;;;47.47;24.98;;;2.60;99.90;;;;;;5053864;28;20235;-67
2021/03/05 02:58:06;;;;;;;37.10;21.60;;;2.80;99.90;;;;;;5063042;28;20321;-67
2021/03/05 03:00:34;;;;;;;36.92;22.23;;;2.60;99.90;;;;;;5056440;28;20229;-68
2021/03/05 03:03:03;;;;;;;36.72;20.90;;;2.60;99.90;;;;;;5057559;28;20260;-68
2021/03/05 03:05:31;;;;;;;46.97;24.27;;;2.60;99.90;;;;;;5055836;28;20228;-67
2021/03/05 03:07:58;;;;;;;43.15;23.60;;;2.60;99.90;;;;;;5057364;28;20205;-68
2021/03/05 03:10:29;;;;;;;38.35;22.10;;;2.50;99.90;;;;;;5053910;28;20216;-68
2021/03/05 03:12:58;;;;;;;45.67;24.63;;;2.50;99.90;;;;;;5053965;28;20635;-68
2021/03/05 03:15:27;;;;;;;39.38;23.60;;;2.70;99.90;;;;;;5065609;28;20219;-68
2021/03/05 03:17:57;;;;;;;40.80;22.42;;;2.60;99.90;;;;;;5052647;28;20403;-67
2021/03/05 03:20:26;;;;;;;46.42;24.25;;;2.60;99.90;;;;;;5046280;28;20208;-67
2021/03/05 03:22:53;;;;;;;39.60;23.95;;;2.90;99.90;;;;;;5056197;28;20218;-69
2021/03/05 03:25:23;;;;;;;44.65;22.98;;;2.60;99.90;;;;;;5054058;28;20217;-68
2021/03/05 03:27:50;;;;;;;43.53;24.35;;;2.70;99.90;;;;;;5058743;28;20415;-69
2021/03/05 03:30:17;;;;;;;40.03;22.65;;;2.50;99.90;;;;;;5053956;28;20407;-69
2021/03/05 03:32:45;;;;;;;36.35;21.80;;;2.50;99.90;;;;;;5056421;28;20209;-68
2021/03/05 03:35:15;;;;;;;41.50;22.85;;;2.50;99.90;;;;;;5054137;28;20299;-68
2021/03/05 03:37:43;;;;;;;40.47;23.38;;;2.40;99.90;;;;;;5057137;28;20299;-69
2021/03/05 03:40:13;;;;;;;44.03;25.13;;;2.50;99.90;;;;;;5053168;28;20225;-69
2021/03/05 03:42:41;;;;;;;47.53;26.17;;;2.40;99.90;;;;;;5056448;28;20216;-69
2021/03/05 03:45:10;;;;;;;42.90;24.17;;;2.40;99.90;;;;;;5053575;28;20212;-69
2021/03/05 03:47:38;;;;;;;44.78;25.58;;;2.50;99.90;;;;;;5049661;28;20695;-69
2021/03/05 03:50:09;;;;;;;38.92;23.65;;;2.40;99.90;;;;;;5056080;28;20250;-69
2021/03/05 03:52:53;;;;;;;52.13;28.55;;;2.40;99.90;;;;;;5056514;28;20222;-70
2021/03/05 03:55:20;;;;;;;35.08;22.67;;;2.30;99.90;;;;;;5052254;28;20215;-69
2021/03/05 03:57:50;;;;;;;47.05;25.42;;;2.20;99.90;;;;;;5055809;28;20208;-69
2021/03/05 04:00:18;;;;;;;39.78;24.23;;;2.20;99.90;;;;;;5055599;28;20497;-69
2021/03/05 04:02:49;;;;;;;45.28;25.20;;;2.20;99.90;;;;;;5055825;28;20251;-69
2021/03/05 04:05:19;;;;;;;50.30;25.33;;;2.30;99.90;;;;;;5055455;28;20235;-69
2021/03/05 04:07:46;;;;;;;47.47;24.20;;;2.20;99.90;;;;;;5059892;28;20209;-69
2021/03/05 04:10:15;;;;;;;36.30;21.25;;;2.30;99.90;;;;;;5058013;28;20209;-69
2021/03/05 04:12:43;;;;;;;39.88;23.60;;;2.20;99.90;;;;;;5059387;28;20245;-69
2021/03/05 04:15:10;;;;;;;32.00;20.02;;;2.30;99.90;;;;;;5058596;28;20217;-69
2021/03/05 04:17:37;;;;;;;34.20;20.75;;;2.00;99.90;;;;;;5057574;28;20226;-69
2021/03/05 04:20:07;;;;;;;22.88;15.57;;;2.00;99.90;;;;;;5048674;28;20553;-68
2021/03/05 04:22:34;;;;;;;23.30;16.58;;;1.90;99.90;;;;;;5054198;28;20261;-68
2021/03/05 04:25:01;;;;;;;32.47;18.70;;;1.80;99.90;;;;;;5055569;28;20204;-68
2021/03/05 04:27:27;;;;;;;27.00;16.60;;;1.70;99.90;;;;;;5059789;28;20602;-68
2021/03/05 04:29:55;;;;;;;22.70;15.70;;;1.60;99.90;;;;;;5058502;28;20214;-68
2021/03/05 04:32:22;;;;;;;25.92;16.90;;;1.60;99.90;;;;;;5061295;28;20241;-66
2021/03/05 04:34:48;;;;;;;25.08;16.05;;;1.50;99.90;;;;;;5057501;28;20235;-67
2021/03/05 04:37:15;;;;;;;22.85;16.52;;;1.50;99.90;;;;;;5058811;28;20207;-67
2021/03/05 04:39:41;;;;;;;26.50;16.85;;;1.40;99.90;;;;;;5058544;28;20239;-68
2021/03/05 04:42:08;;;;;;;19.40;13.68;;;1.50;99.90;;;;;;5057059;28;20224;-67
2021/03/05 04:44:34;;;;;;;21.55;14.85;;;1.50;99.90;;;;;;5059564;28;20212;-67
2021/03/05 04:47:01;;;;;;;24.38;15.80;;;1.50;99.90;;;;;;5058059;28;20207;-69
2021/03/05 04:49:28;;;;;;;28.38;16.08;;;1.40;99.90;;;;;;5057855;28;20222;-69
2021/03/05 04:51:56;;;;;;;22.98;15.85;;;1.40;99.90;;;;;;5071054;28;20235;-68
2021/03/05 04:54:22;;;;;;;19.77;14.10;;;1.50;99.90;;;;;;5047192;28;20207;-69
2021/03/05 04:56:50;;;;;;;24.10;15.27;;;1.70;99.90;;;;;;5056118;28;20539;-69
2021/03/05 04:59:16;;;;;;;22.25;17.10;;;1.60;99.90;;;;;;5058803;28;20208;-69
2021/03/05 05:01:43;;;;;;;25.15;15.85;;;1.50;99.90;;;;;;5057904;28;20242;-68
2021/03/05 05:04:10;;;;;;;20.85;16.60;;;1.40;99.90;;;;;;5059238;28;20215;-67
2021/03/05 05:06:40;;;;;;;23.35;16.20;;;1.40;99.90;;;;;;5060073;28;20227;-68
2021/03/05 05:09:18;;;;;;;24.77;16.17;;;1.40;99.90;;;;;;5058977;28;20206;-68
2021/03/05 05:11:44;;;;;;;23.02;15.43;;;1.40;99.90;;;;;;5056240;28;20211;-69
2021/03/05 05:14:11;;;;;;;25.95;17.35;;;1.40;99.90;;;;;;5055391;28;20235;-68
2021/03/05 05:16:38;;;;;;;23.73;16.35;;;1.40;99.90;;;;;;5056242;28;20385;-69
2021/03/05 05:19:05;;;;;;;26.08;17.52;;;1.40;99.90;;;;;;5048750;28;20211;-64
2021/03/05 05:21:31;;;;;;;31.00;19.15;;;1.30;99.90;;;;;;5056292;28;20231;-64
2021/03/05 05:23:58;;;;;;;31.42;20.10;;;1.20;99.90;;;;;;5058794;28;20417;-64
2021/03/05 05:26:25;;;;;;;29.30;17.45;;;1.20;99.90;;;;;;5054577;28;20199;-67
2021/03/05 05:28:52;;;;;;;25.00;17.50;;;1.20;99.90;;;;;;5058785;28;20249;-66
2021/03/05 05:31:19;;;;;;;27.58;18.35;;;1.40;99.90;;;;;;5056524;28;20391;-68
2021/03/05 05:33:45;;;;;;;22.27;15.38;;;1.20;99.90;;;;;;5058547;28;20215;-67
2021/03/05 05:36:12;;;;;;;26.90;15.48;;;1.10;99.90;;;;;;5053388;28;20215;-65
2021/03/05 05:38:38;;;;;;;21.23;14.40;;;2.40;99.90;;;;;;5053474;28;20211;-66
2021/03/05 05:41:05;;;;;;;18.27;14.50;;;1.10;99.90;;;;;;5055075;28;20281;-64
2021/03/05 05:43:32;;;;;;;26.92;14.18;;;1.10;99.90;;;;;;5051225;28;20208;-64
2021/03/05 05:46:08;;;;;;;28.60;14.80;;;2.10;99.90;;;;;;5055579;28;20292;-63
2021/03/05 05:48:37;;;;;;;23.85;16.05;;;1.10;99.90;;;;;;5056438;28;20689;-65
2021/03/05 05:51:14;;;;;;;16.58;14.00;;;1.00;99.90;;;;;;5065395;28;20215;-63
2021/03/05 05:53:45;;;;;;;17.67;12.18;;;1.00;99.90;;;;;;5057735;28;20207;-64
2021/03/05 05:56:19;;;;;;;16.23;12.40;;;1.00;99.90;;;;;;5054964;28;20235;-63
2021/03/05 05:58:46;;;;;;;18.95;12.43;;;1.00;99.90;;;;;;5052777;28;20412;-64
2021/03/05 06:01:14;;;;;;;18.23;12.35;;;1.00;99.90;;;;;;5059046;28;20257;-63
2021/03/05 06:03:41;;;;;;;16.75;10.13;;;1.00;99.90;;;;;;5056160;28;20303;-64
2021/03/05 06:06:10;;;;;;;21.02;14.27;;;1.10;99.90;;;;;;5056685;28;20270;-63
2021/03/05 06:08:59;;;;;;;14.52;10.93;;;1.00;99.90;;;;;;5057952;28;20211;-64
2021/03/05 06:11:43;;;;;;;26.50;13.18;;;1.00;99.90;;;;;;5058693;28;20212;-65
2021/03/05 06:14:11;;;;;;;13.52;10.30;;;1.00;99.90;;;;;;5064072;28;20234;-67
2021/03/05 06:16:54;;;;;;;18.77;11.10;;;1.00;99.90;;;;;;5055389;28;20207;-66
2021/03/05 06:19:24;;;;;;;25.58;11.20;;;1.00;99.90;;;;;;5057710;28;20211;-67
2021/03/05 06:21:53;;;;;;;12.25;9.27;;;1.10;99.90;;;;;;5057696;28;20238;-67
2021/03/05 06:24:21;;;;;;;13.13;10.57;;;1.10;99.90;;;;;;5064028;28;20490;-68
2021/03/05 06:27:00;;;;;;;20.20;11.63;;;1.00;99.90;;;;;;5059220;28;20307;-67
2021/03/05 06:29:29;;;;;;;14.80;9.65;;;1.00;99.90;;;;;;5051993;28;20195;-69
2021/03/05 06:32:03;;;;;;;15.18;9.57;;;1.20;99.90;;;;;;5056157;28;20207;-68
2021/03/05 06:34:48;;;;;;;15.90;10.05;;;1.10;99.90;;;;;;5054594;28;20222;-67
2021/03/05 06:37:20;;;;;;;14.38;9.07;;;1.00;99.90;;;;;;5053988;28;20453;-68
2021/03/05 06:39:58;;;;;;;16.23;9.43;;;1.10;99.90;;;;;;5055631;28;20215;-68
2021/03/05 06:42:24;;;;;;;13.52;8.00;;;1.30;99.90;;;;;;5051986;28;20239;-68
2021/03/05 06:44:51;;;;;;;7.97;6.55;;;1.20;99.90;;;;;;5054634;28;20211;-69
2021/03/05 06:47:19;;;;;;;11.43;8.07;;;1.90;99.90;;;;;;5053446;28;20203;-67
2021/03/05 06:49:48;;;;;;;11.68;7.45;;;0.50;99.80;;;;;;5060804;28;20229;-67
2021/03/05 06:52:16;;;;;;;17.35;9.55;;;1.10;99.90;;;;;;5056647;28;20481;-69
2021/03/05 06:54:44;;;;;;;13.80;8.75;;;1.10;99.90;;;;;;5057803;28;20243;-67
2021/03/05 06:57:13;;;;;;;12.00;8.35;;;1.10;99.90;;;;;;5056677;28;20246;-68
2021/03/05 06:59:47;;;;;;;12.77;9.77;;;1.10;99.90;;;;;;5054401;28;20406;-67
2021/03/05 07:02:15;;;;;;;18.00;9.80;;;1.10;99.90;;;;;;5048906;28;20228;-67
2021/03/05 07:04:49;;;;;;;21.23;10.63;;;1.20;99.90;;;;;;5055833;28;20227;-67
2021/03/05 07:07:18;;;;;;;22.50;10.25;;;1.30;99.90;;;;;;5056496;28;20250;-67
2021/03/05 07:09:50;;;;;;;21.88;12.07;;;1.30;99.70;;;;;;5058780;28;20207;-67
2021/03/05 07:12:20;;;;;;;14.40;10.18;;;1.40;99.90;;;;;;5057224;28;20265;-68
2021/03/05 07:15:02;;;;;;;11.77;8.80;;;1.50;99.90;;;;;;5057156;28;20249;-67
2021/03/05 07:17:30;;;;;;;14.48;9.88;;;1.30;99.20;;;;;;5056532;28;20207;-67
2021/03/05 07:20:00;;;;;;;17.65;10.75;;;1.30;99.40;;;;;;5066092;28;20207;-67
2021/03/05 07:22:29;;;;;;;15.90;9.30;;;1.30;99.90;;;;;;5062332;28;20231;-65
2021/03/05 07:25:02;;;;;;;13.38;10.05;;;1.30;98.60;;;;;;5056849;28;20207;-67
2021/03/05 07:27:37;;;;;;;14.88;9.48;;;1.20;99.40;;;;;;5058114;28;20218;-64
2021/03/05 07:30:14;;;;;;;17.55;9.13;;;1.20;99.10;;;;;;5055831;28;20254;-67
2021/03/05 07:32:47;;;;;;;12.75;10.43;;;1.20;98.50;;;;;;5056982;28;20215;-66
2021/03/05 07:35:33;;;;;;;13.80;10.23;;;1.20;98.70;;;;;;5057070;28;20210;-66
2021/03/05 07:38:03;;;;;;;13.35;9.35;;;1.20;98.90;;;;;;5058702;28;20199;-67
2021/03/05 07:40:31;;;;;;;19.25;11.80;;;1.20;98.60;;;;;;5066203;28;20208;-65
2021/03/05 07:43:03;;;;;;;11.95;8.75;;;1.30;98.30;;;;;;5068913;28;20211;-65
2021/03/05 07:45:31;;;;;;;15.82;9.68;;;1.40;97.70;;;;;;5068664;28;20207;-66
2021/03/05 07:48:00;;;;;;;14.25;8.77;;;1.60;97.40;;;;;;5066459;28;21495;-66
2021/03/05 07:50:29;;;;;;;25.80;9.90;;;1.70;97.70;;;;;;5062401;28;20208;-66
2021/03/05 07:52:58;;;;;;;12.52;9.10;;;1.70;97.20;;;;;;5067164;28;20217;-66
2021/03/05 07:55:43;;;;;;;10.18;7.72;;;1.90;96.90;;;;;;5062210;28;20239;-64
2021/03/05 07:58:32;;;;;;;12.82;9.05;;;1.90;96.40;;;;;;5064771;28;20391;-66
2021/03/05 08:01:03;;;;;;;11.40;8.68;;;2.00;96.10;;;;;;5061678;28;20237;-66
2021/03/05 08:03:54;;;;;;;12.50;9.30;;;2.00;95.70;;;;;;5060600;28;20213;-65
2021/03/05 08:06:34;;;;;;;21.80;9.90;;;1.80;96.00;;;;;;5060554;28;20410;-66
2021/03/05 08:09:15;;;;;;;17.73;7.20;;;1.80;95.40;;;;;;5063745;28;20203;-67
2021/03/05 08:11:43;;;;;;;7.55;6.78;;;1.90;94.90;;;;;;5068532;28;20405;-67
2021/03/05 08:14:26;;;;;;;8.35;7.43;;;2.00;94.70;;;;;;5067800;28;20238;-67
2021/03/05 08:16:53;;;;;;;16.48;10.27;;;2.10;94.40;;;;;;5065182;28;20204;-66
2021/03/05 08:19:20;;;;;;;9.60;6.95;;;2.30;94.60;;;;;;5062144;28;20211;-67
2021/03/05 08:21:54;;;;;;;11.95;7.43;;;3.50;92.40;;;;;;5064656;28;20416;-67
2021/03/05 08:24:25;;;;;;;18.05;8.60;;;4.30;90.70;;;;;;5060454;28;20270;-67
2021/03/05 08:27:11;;;;;;;9.32;7.18;;;5.60;88.80;;;;;;5062026;28;20215;-69
2021/03/05 08:30:05;;;;;;;9.82;6.65;;;5.80;83.70;;;;;;5065593;28;20471;-68
2021/03/05 08:32:34;;;;;;;10.48;5.82;;;5.80;83.00;;;;;;5062569;28;20214;-68
2021/03/05 08:35:13;;;;;;;7.32;5.43;;;5.70;80.40;;;;;;5064876;28;20239;-68
2021/03/05 08:38:06;;;;;;;10.65;6.50;;;4.90;82.20;;;;;;5064880;28;20221;-67
2021/03/05 08:40:47;;;;;;;6.18;5.55;;;4.40;84.50;;;;;;5065679;28;20210;-66
2021/03/05 08:43:25;;;;;;;10.55;6.72;;;4.50;84.50;;;;;;5081861;28;20202;-66
2021/03/05 08:45:59;;;;;;;6.72;4.88;;;3.90;88.70;;;;;;5064629;28;20301;-67
2021/03/05 08:48:28;;;;;;;5.70;4.68;;;3.90;87.10;;;;;;5063336;28;20210;-67
2021/03/05 08:51:05;;;;;;;8.80;5.47;;;5.40;83.50;;;;;;5068664;28;20263;-68
2021/03/05 08:53:39;;;;;;;5.47;4.90;;;6.40;77.90;;;;;;5061280;28;20509;-68
2021/03/05 08:56:06;;;;;;;10.02;5.72;;;5.00;79.70;;;;;;5059848;28;20204;-67
2021/03/05 08:58:34;;;;;;;10.13;5.32;;;3.50;83.00;;;;;;5059809;28;20237;-68
2021/03/05 09:01:01;;;;;;;7.22;5.20;;;5.20;81.90;;;;;;5059068;28;20306;-66
2021/03/05 09:03:28;;;;;;;6.68;4.88;;;5.30;82.50;;;;;;5059650;28;20370;-67
2021/03/05 09:05:55;;;;;;;12.20;4.30;;;6.30;77.40;;;;;;5054507;28;20204;-69
2021/03/05 09:08:30;;;;;;;7.30;4.95;;;6.70;74.30;;;;;;5059138;28;20652;-69
2021/03/05 09:11:04;;;;;;;5.35;4.70;;;7.20;72.80;;;;;;5059238;28;20204;-68
2021/03/05 09:13:33;;;;;;;8.30;5.60;;;7.50;72.10;;;;;;5056176;28;20302;-68
2021/03/05 09:16:05;;;;;;;5.22;4.65;;;5.70;76.30;;;;;;5059560;28;20207;-68
2021/03/05 09:18:40;;;;;;;12.05;6.13;;;4.40;81.90;;;;;;5047520;28;20260;-69
2021/03/05 09:21:10;;;;;;;4.95;4.10;;;4.00;85.00;;;;;;5057163;28;20251;-68
2021/03/05 09:23:42;;;;;;;6.85;4.90;;;3.60;85.80;;;;;;5054552;28;20241;-68
2021/03/05 09:26:15;;;;;;;7.43;3.30;;;3.60;86.30;;;;;;5058190;28;20215;-70
2021/03/05 09:28:56;;;;;;;1.92;1.50;;;4.30;81.00;;;;;;5057151;28;20233;-69
2021/03/05 09:31:26;;;;;;;3.15;2.33;;;3.80;78.30;;;;;;5056808;28;20345;-69
2021/03/05 09:33:53;;;;;;;4.60;3.05;;;3.20;82.70;;;;;;5060526;28;20280;-70
2021/03/05 09:36:23;;;;;;;4.07;3.13;;;3.00;84.10;;;;;;5064248;28;20252;-68
2021/03/05 09:39:03;;;;;;;4.05;3.30;;;3.00;85.00;;;;;;5060515;28;20210;-70
2021/03/05 09:41:31;;;;;;;4.32;3.30;;;3.40;83.00;;;;;;5054984;28;20235;-68
2021/03/05 09:44:08;;;;;;;3.08;2.78;;;4.00;79.60;;;;;;5059825;28;20210;-70
2021/03/05 09:46:41;;;;;;;5.18;2.92;;;4.70;74.10;;;;;;5059654;28;20213;-70
2021/03/05 09:49:20;;;;;;;4.57;2.22;;;4.80;76.30;;;;;;5057962;28;20213;-72
2021/03/05 09:51:47;;;;;;;5.57;3.05;;;4.30;77.40;;;;;;5055841;28;20216;-71
2021/03/05 09:54:16;;;;;;;4.45;3.00;;;4.00;78.40;;;;;;5055248;28;20206;-70
2021/03/05 09:56:49;;;;;;;5.05;2.08;;;3.70;78.80;;;;;;5060576;28;20263;-71
2021/03/05 09:59:16;;;;;;;7.82;2.70;;;3.20;79.70;;;;;;5054035;28;20205;-71
2021/03/05 10:01:44;;;;;;;9.57;2.40;;;3.30;78.70;;;;;;5058805;28;20780;-69
2021/03/05 10:04:12;;;;;;;4.78;2.67;;;3.50;76.80;;;;;;5057097;28;20217;-70
2021/03/05 10:06:44;;;;;;;2.30;1.90;;;3.80;75.60;;;;;;5058649;28;20271;-66
2021/03/05 10:09:15;;;;;;;6.90;2.42;;;3.90;73.20;;;;;;5057886;28;20217;-70
2021/03/05 10:11:48;;;;;;;2.83;2.28;;;4.20;72.40;;;;;;5054154;28;20249;-72
2021/03/05 10:14:27;;;;;;;1.77;1.15;;;4.20;71.60;;;;;;5062657;28;20246;-70
2021/03/05 10:17:18;;;;;;;3.60;2.33;;;4.60;71.80;;;;;;5065090;28;20202;-68
2021/03/05 10:19:49;;;;;;;10.10;1.95;;;4.60;71.80;;;;;;5060687;28;20206;-69
2021/03/05 10:22:25;;;;;;;5.70;2.10;;;4.30;73.40;;;;;;5066110;28;20228;-69
2021/03/05 10:24:56;;;;;;;5.00;2.40;;;4.20;75.00;;;;;;5077990;28;20214;-70
2021/03/05 10:27:23;;;;;;;2.72;1.65;;;4.20;74.30;;;;;;5067432;28;20217;-70
2021/03/05 10:29:57;;;;;;;2.80;2.05;;;4.40;73.40;;;;;;5059089;28;20237;-69
2021/03/05 10:32:33;;;;;;;2.53;2.13;;;4.90;72.40;;;;;;5058793;28;20253;-69
2021/03/05 10:35:11;;;;;;;4.90;2.95;;;4.70;68.80;;;;;;5051345;28;20225;-68
2021/03/05 10:37:40;;;;;;;4.05;1.67;;;4.40;71.20;;;;;;5058761;28;20210;-69
2021/03/05 10:40:16;;;;;;;10.90;2.53;;;4.00;72.40;;;;;;5058428;28;20213;-69
2021/03/05 10:42:45;;;;;;;1.60;1.48;;;3.90;72.90;;;;;;5056928;28;20391;-68
2021/03/05 10:45:14;;;;;;;4.88;2.03;;;3.80;72.60;;;;;;5057633;28;20243;-69
2021/03/05 10:47:41;;;;;;;5.35;2.28;;;3.70;74.30;;;;;;5057573;28;20217;-68
2021/03/05 10:50:09;;;;;;;8.73;2.30;;;3.60;73.80;;;;;;5059596;28;20201;-68
2021/03/05 10:52:36;;;;;;;3.47;3.05;;;3.50;74.40;;;;;;5054388;28;20209;-70
2021/03/05 10:55:04;;;;;;;4.70;2.20;;;3.70;73.70;;;;;;5057792;28;20500;-69
2021/03/05 10:57:31;;;;;;;7.82;2.35;;;3.80;71.40;;;;;;5057032;28;20220;-69
2021/03/05 10:59:58;;;;;;;10.25;2.50;;;3.80;71.70;;;;;;5048385;28;20453;-69
2021/03/05 11:02:24;;;;;;;8.57;2.17;;;5.10;71.60;;;;;;5057190;28;20241;-69
2021/03/05 11:04:51;;;;;;;8.40;3.13;;;4.40;68.10;;;;;;5056019;28;20230;-70
2021/03/05 11:07:18;;;;;;;4.88;2.17;;;4.60;65.80;;;;;;5057332;28;20205;-68
2021/03/05 11:09:45;;;;;;;9.68;2.20;;;4.40;66.80;;;;;;5055210;28;20211;-69
2021/03/05 11:12:12;;;;;;;6.65;3.25;;;4.30;67.80;;;;;;5057127;28;20265;-70
2021/03/05 11:14:39;;;;;;;4.75;2.50;;;4.40;68.30;;;;;;5057718;28;20206;-70
2021/03/05 11:17:06;;;;;;;6.25;1.92;;;4.40;68.30;;;;;;5063947;28;20513;-70
2021/03/05 11:19:33;;;;;;;2.00;1.40;;;4.20;66.70;;;;;;5057882;28;20556;-69
2021/03/05 11:22:00;;;;;;;4.53;2.50;;;4.20;67.30;;;;;;5065721;28;20244;-70
2021/03/05 11:24:27;;;;;;;4.20;1.85;;;4.30;68.50;;;;;;5065464;28;20265;-69
2021/03/05 11:26:54;;;;;;;3.55;2.00;;;4.20;69.20;;;;;;5057503;28;20478;-70
2021/03/05 11:29:21;;;;;;;3.85;2.00;;;4.30;67.40;;;;;;5056302;28;20317;-71
2021/03/05 11:31:47;;;;;;;2.45;2.25;;;4.50;68.10;;;;;;5057143;28;20471;-68
2021/03/05 11:34:14;;;;;;;3.60;1.40;;;4.80;67.10;;;;;;5056633;28;20290;-69
2021/03/05 11:36:42;;;;;;;2.35;1.35;;;5.00;64.40;;;;;;5055402;28;20771;-68
2021/03/05 11:39:11;;;;;;;8.70;2.20;;;5.10;62.80;;;;;;5057153;28;20553;-66
2021/03/05 11:41:38;;;;;;;1.65;1.40;;;4.90;61.60;;;;;;5054350;28;20321;-68
2021/03/05 11:44:21;;;;;;;5.28;1.70;;;4.70;63.00;;;;;;5052940;28;20214;-67
2021/03/05 11:46:49;;;;;;;1.20;1.10;;;4.70;63.00;;;;;;5051450;28;20411;-70
2021/03/05 11:49:16;;;;;;;1.20;1.10;;;4.70;62.00;;;;;;5060808;28;20207;-69
2021/03/05 11:51:43;;;;;;;2.35;1.65;;;4.60;62.10;;;;;;5060529;28;20224;-70
2021/03/05 11:54:10;;;;;;;11.85;2.28;;;4.70;61.50;;;;;;5062067;28;20248;-69
2021/03/05 11:56:36;;;;;;;2.88;1.35;;;4.90;62.30;;;;;;5056768;28;20255;-69
2021/03/05 11:59:05;;;;;;;4.35;1.70;;;4.90;61.00;;;;;;5055638;28;20206;-69
2021/03/05 12:01:33;;;;;;;1.95;1.60;;;4.70;61.80;;;;;;5056530;28;20309;-69
2021/03/05 12:04:00;;;;;;;9.68;2.38;;;4.70;61.60;;;;;;5050921;28;20425;-69
2021/03/05 12:06:27;;;;;;;4.53;2.58;;;4.60;62.90;;;;;;5050421;28;20571;-71
2021/03/05 12:08:54;;;;;;;5.10;1.65;;;4.60;59.60;;;;;;5054792;28;20203;-68
2021/03/05 12:11:21;;;;;;;9.05;2.53;;;4.60;60.60;;;;;;5043571;28;20523;-68
2021/03/05 12:13:48;;;;;;;1.55;1.30;;;4.70;61.00;;;;;;5056208;28;20238;-69
2021/03/05 12:16:14;;;;;;;3.35;1.60;;;4.90;61.60;;;;;;5055991;28;20207;-70
2021/03/05 12:18:42;;;;;;;2.88;1.88;;;4.70;60.60;;;;;;5057042;28;20210;-72
2021/03/05 12:21:11;;;;;;;7.07;2.47;;;4.60;62.50;;;;;;5055421;28;20207;-70
2021/03/05 12:23:42;;;;;;;4.95;1.70;;;4.70;63.10;;;;;;5055370;28;20257;-70
2021/03/05 12:26:09;;;;;;;2.00;1.80;;;4.90;61.40;;;;;;5055726;28;20211;-69
2021/03/05 12:28:37;;;;;;;4.10;1.67;;;4.80;61.00;;;;;;5060226;28;20411;-67
2021/03/05 12:31:03;;;;;;;6.28;2.15;;;4.60;61.40;;;;;;5059750;28;20250;-68
2021/03/05 12:33:30;;;;;;;4.03;1.52;;;4.40;60.50;;;;;;5059877;28;20286;-73
2021/03/05 12:35:58;;;;;;;1.92;1.58;;;4.30;63.00;;;;;;5058822;28;20341;-71
2021/03/05 12:38:25;;;;;;;4.90;1.98;;;4.40;61.60;;;;;;5059293;28;20211;-69
2021/03/05 12:40:51;;;;;;;2.85;1.70;;;4.40;60.70;;;;;;5059034;28;20286;-70
2021/03/05 12:43:18;;;;;;;6.53;2.00;;;4.30;61.50;;;;;;5045142;28;20235;-71
2021/03/05 12:45:45;;;;;;;2.50;1.35;;;4.40;60.60;;;;;;5050333;28;20230;-70
2021/03/05 12:48:12;;;;;;;2.75;1.50;;;4.40;59.60;;;;;;5047880;28;20741;-69
2021/03/05 12:50:40;;;;;;;3.78;2.03;;;4.40;59.10;;;;;;5063814;28;20409;-67
2021/03/05 12:53:08;;;;;;;7.22;2.08;;;4.50;59.10;;;;;;5057305;28;20214;-70
2021/03/05 12:55:41;;;;;;;1.77;1.67;;;4.60;59.70;;;;;;5062208;28;20398;-70
2021/03/05 12:58:07;;;;;;;3.72;1.90;;;4.70;58.70;;;;;;5059586;28;20472;-70
2021/03/05 13:00:34;;;;;;;2.55;1.65;;;4.90;58.00;;;;;;5057298;28;20218;-69